createdAt,value
2019-05-25T00:00:09.893Z,12.7
2019-05-25T00:01:52.803Z,12.6
2019-05-25T00:03:52.868Z,12.6
2019-05-25T00:05:52.866Z,12.6
2019-05-25T00:07:52.967Z,12.6
2019-05-25T00:09:52.857Z,12.6
2019-05-25T00:11:52.978Z,12.6
2019-05-25T00:13:52.863Z,12.6
2019-05-25T00:15:09.942Z,12.6
2019-05-25T00:15:52.898Z,12.5
2019-05-25T00:17:52.875Z,12.5
2019-05-25T00:19:52.871Z,12.4
2019-05-25T00:21:52.939Z,12.4
2019-05-25T00:23:52.866Z,12.4
2019-05-25T00:25:52.866Z,12.4
2019-05-25T00:27:57.999Z,12.4
2019-05-25T00:29:52.858Z,12.3
2019-05-25T00:30:09.844Z,12.3
2019-05-25T00:31:52.952Z,12.3
2019-05-25T00:33:52.848Z,12.3
2019-05-25T00:35:52.877Z,12.3
2019-05-25T00:37:52.924Z,12.3
2019-05-25T00:39:52.867Z,12.2
2019-05-25T00:41:52.920Z,12.2
2019-05-25T00:43:52.814Z,12.1
2019-05-25T00:45:09.824Z,12.1
2019-05-25T00:45:52.852Z,12.1
2019-05-25T00:47:52.856Z,12.1
2019-05-25T00:49:52.836Z,12.1
2019-05-25T00:51:52.779Z,12.1
2019-05-25T00:53:52.860Z,12
2019-05-25T00:55:52.867Z,11.9
2019-05-25T00:57:52.819Z,11.9
2019-05-25T00:59:52.944Z,11.9
2019-05-25T01:00:09.885Z,11.9
2019-05-25T01:01:53.818Z,11.9
2019-05-25T01:03:52.871Z,11.9
2019-05-25T01:05:52.819Z,11.9
2019-05-25T01:07:52.907Z,11.9
2019-05-25T01:09:52.902Z,11.9
2019-05-25T01:11:52.868Z,11.8
2019-05-25T01:13:52.811Z,11.8
2019-05-25T01:15:09.913Z,11.8
2019-05-25T01:15:52.945Z,11.8
2019-05-25T01:17:52.948Z,11.7
2019-05-25T01:19:52.867Z,11.6
2019-05-25T01:21:53.918Z,11.6
2019-05-25T01:23:52.888Z,11.5
2019-05-25T01:25:52.816Z,11.5
2019-05-25T01:27:52.950Z,11.4
2019-05-25T01:29:53.017Z,11.4
2019-05-25T01:30:09.874Z,11.4
2019-05-25T01:31:52.906Z,11.4
2019-05-25T01:33:52.816Z,11.3
2019-05-25T01:35:52.816Z,11.3
2019-05-25T01:37:52.830Z,11.2
2019-05-25T01:39:52.875Z,11.1
2019-05-25T01:41:52.872Z,11.1
2019-05-25T01:43:52.895Z,11
2019-05-25T01:45:09.876Z,10.9
2019-05-25T01:45:52.845Z,10.9
2019-05-25T01:47:52.876Z,10.9
2019-05-25T01:49:52.873Z,10.9
2019-05-25T01:51:52.958Z,10.8
2019-05-25T01:53:52.862Z,10.8
2019-05-25T01:55:52.874Z,10.6
2019-05-25T01:57:52.883Z,10.6
2019-05-25T01:59:52.874Z,10.6
2019-05-25T02:00:09.825Z,10.6
2019-05-25T02:01:52.816Z,10.6
2019-05-25T02:03:53.826Z,10.5
2019-05-25T02:05:52.874Z,10.5
2019-05-25T02:07:52.965Z,10.4
2019-05-25T02:09:52.882Z,10.4
2019-05-25T02:11:53.750Z,10.3
2019-05-25T02:13:52.864Z,10.3
2019-05-25T02:15:09.911Z,10.3
2019-05-25T02:15:52.881Z,10.3
2019-05-25T02:17:52.862Z,10.1
2019-05-25T02:19:52.950Z,10.1
2019-05-25T02:21:52.865Z,10.1
2019-05-25T02:23:52.873Z,10
2019-05-25T02:25:52.820Z,10
2019-05-25T02:27:52.857Z,10
2019-05-25T02:29:52.870Z,9.9
2019-05-25T02:30:09.877Z,9.9
2019-05-25T02:31:52.860Z,9.9
2019-05-25T02:33:52.859Z,9.9
2019-05-25T02:35:52.887Z,9.9
2019-05-25T02:37:52.856Z,9.8
2019-05-25T02:39:52.823Z,9.9
2019-05-25T02:41:52.844Z,9.8
2019-05-25T02:43:52.868Z,9.8
2019-05-25T02:45:09.883Z,9.9
2019-05-25T02:45:52.910Z,9.9
2019-05-25T02:47:52.859Z,9.9
2019-05-25T02:49:52.936Z,9.9
2019-05-25T02:51:53.724Z,9.8
2019-05-25T02:53:52.940Z,9.8
2019-05-25T02:55:52.951Z,9.8
2019-05-25T02:57:52.944Z,9.8
2019-05-25T02:59:52.859Z,9.8
2019-05-25T03:00:09.882Z,9.8
2019-05-25T03:01:52.922Z,9.8
2019-05-25T03:03:52.869Z,9.7
2019-05-25T03:05:52.902Z,9.7
2019-05-25T03:07:52.959Z,9.7
2019-05-25T03:09:52.865Z,9.6
2019-05-25T03:11:54.148Z,9.6
2019-05-25T03:13:52.892Z,9.6
2019-05-25T03:15:09.770Z,9.5
2019-05-25T03:15:52.825Z,9.5
2019-05-25T03:17:52.882Z,9.6
2019-05-25T03:19:52.853Z,9.5
2019-05-25T03:21:52.863Z,9.4
2019-05-25T03:23:52.874Z,9.5
2019-05-25T03:25:52.873Z,9.5
2019-05-25T03:27:52.910Z,9.4
2019-05-25T03:29:52.874Z,9.4
2019-05-25T03:30:09.964Z,9.5
2019-05-25T03:31:52.900Z,9.4
2019-05-25T03:33:52.950Z,9.4
2019-05-25T03:35:52.919Z,9.4
2019-05-25T03:37:52.977Z,9.4
2019-05-25T03:39:52.997Z,9.4
2019-05-25T03:41:52.871Z,9.4
2019-05-25T03:43:52.872Z,9.4
2019-05-25T03:45:09.896Z,9.4
2019-05-25T03:45:52.881Z,9.4
2019-05-25T03:47:52.961Z,9.4
2019-05-25T03:49:53.002Z,9.4
2019-05-25T03:51:52.886Z,9.4
2019-05-25T03:53:52.894Z,9.4
2019-05-25T03:56:05.121Z,9.4
2019-05-25T03:57:52.799Z,9.4
2019-05-25T03:59:52.960Z,9.3
2019-05-25T04:00:09.894Z,9.3
2019-05-25T04:01:52.831Z,9.3
2019-05-25T04:03:52.870Z,9.4
2019-05-25T04:05:52.865Z,9.3
2019-05-25T04:07:52.849Z,9.3
2019-05-25T04:09:52.827Z,9.3
2019-05-25T04:11:52.914Z,9.4
2019-05-25T04:13:52.852Z,9.4
2019-05-25T04:15:09.780Z,9.4
2019-05-25T04:15:52.906Z,9.4
2019-05-25T04:17:52.904Z,9.4
2019-05-25T04:19:52.782Z,9.4
2019-05-25T04:21:53.069Z,9.4
2019-05-25T04:23:52.848Z,9.4
2019-05-25T04:25:52.864Z,9.4
2019-05-25T04:27:52.902Z,9.5
2019-05-25T04:29:52.982Z,9.6
2019-05-25T04:30:09.863Z,9.6
2019-05-25T04:31:52.808Z,9.6
2019-05-25T04:33:52.864Z,9.6
2019-05-25T04:35:52.811Z,9.6
2019-05-25T04:37:52.963Z,9.6
2019-05-25T04:39:52.721Z,9.6
2019-05-25T04:41:52.926Z,9.8
2019-05-25T04:43:52.859Z,9.7
2019-05-25T04:45:09.858Z,9.8
2019-05-25T04:45:52.871Z,9.8
2019-05-25T04:47:52.743Z,9.9
2019-05-25T04:49:52.845Z,9.8
2019-05-25T04:51:52.729Z,10
2019-05-25T04:53:52.854Z,10
2019-05-25T04:55:52.858Z,10
2019-05-25T04:57:52.817Z,10.1
2019-05-25T04:59:52.844Z,10.2
2019-05-25T05:00:09.852Z,10.2
2019-05-25T05:01:53.733Z,10.2
2019-05-25T05:03:53.049Z,10.3
2019-05-25T05:05:52.773Z,10.3
2019-05-25T05:07:52.936Z,10.3
2019-05-25T05:10:01.966Z,10.4
2019-05-25T05:11:52.854Z,10.5
2019-05-25T05:13:52.853Z,10.6
2019-05-25T05:15:09.784Z,10.7
2019-05-25T05:15:52.864Z,10.8
2019-05-25T05:17:52.844Z,10.8
2019-05-25T05:19:52.869Z,10.8
2019-05-25T05:21:52.854Z,10.9
2019-05-25T05:23:52.729Z,11
2019-05-25T05:25:52.883Z,11.1
2019-05-25T05:27:52.921Z,11.1
2019-05-25T05:29:52.856Z,11.2
2019-05-25T05:30:09.782Z,11.2
2019-05-25T05:31:52.810Z,11.3
2019-05-25T05:33:52.881Z,11.3
2019-05-25T05:35:52.827Z,11.1
2019-05-25T05:37:52.844Z,11.1
2019-05-25T05:39:52.802Z,11.2
2019-05-25T05:41:52.840Z,11.2
2019-05-25T05:43:52.827Z,11.3
2019-05-25T05:45:09.903Z,11.3
2019-05-25T05:45:52.859Z,11.4
2019-05-25T05:47:52.732Z,11.4
2019-05-25T05:49:52.893Z,11.5
2019-05-25T05:51:52.813Z,11.5
2019-05-25T05:53:52.869Z,11.4
2019-05-25T05:55:52.809Z,11.4
2019-05-25T05:57:52.975Z,11.4
2019-05-25T05:59:52.850Z,11.4
2019-05-25T06:00:09.858Z,11.4
2019-05-25T06:01:52.938Z,11.4
2019-05-25T06:03:52.853Z,11.4
2019-05-25T06:05:52.920Z,11.3
2019-05-25T06:07:52.824Z,11.2
2019-05-25T06:09:52.774Z,11.1
2019-05-25T06:11:52.859Z,11
2019-05-25T06:13:52.837Z,10.9
2019-05-25T06:15:09.889Z,11
2019-05-25T06:15:55.750Z,11
2019-05-25T06:17:52.875Z,11.1
2019-05-25T06:19:52.749Z,11.1
2019-05-25T06:21:52.996Z,11.3
2019-05-25T06:23:52.865Z,11.3
2019-05-25T06:25:53.649Z,11.2
2019-05-25T06:27:52.865Z,11.3
2019-05-25T06:29:52.785Z,11.3
2019-05-25T06:30:09.858Z,11.3
2019-05-25T06:31:52.849Z,11.3
2019-05-25T06:33:52.854Z,11.2
2019-05-25T06:35:53.021Z,11.3
2019-05-25T06:37:52.792Z,11.4
2019-05-25T06:39:52.796Z,11.6
2019-05-25T06:41:52.875Z,11.6
2019-05-25T06:43:52.738Z,11.6
2019-05-25T06:45:09.889Z,11.6
2019-05-25T06:45:52.783Z,11.6
2019-05-25T06:47:52.970Z,11.7
2019-05-25T06:49:52.878Z,11.7
2019-05-25T06:51:52.793Z,11.7
2019-05-25T06:53:52.873Z,11.7
2019-05-25T06:55:52.809Z,11.8
2019-05-25T06:57:52.870Z,11.9
2019-05-25T06:59:52.824Z,12
2019-05-25T07:00:09.987Z,12.1
2019-05-25T07:01:52.871Z,12
2019-05-25T07:03:52.816Z,12
2019-05-25T07:05:52.848Z,12
2019-05-25T07:07:54.579Z,12
2019-05-25T07:09:52.865Z,12.1
2019-05-25T07:11:53.728Z,12.3
2019-05-25T07:13:52.868Z,12.4
2019-05-25T07:15:09.899Z,12.4
2019-05-25T07:15:52.925Z,12.3
2019-05-25T07:17:52.863Z,12.4
2019-05-25T07:19:52.785Z,12.6
2019-05-25T07:21:52.865Z,12.5
2019-05-25T07:23:52.874Z,12.6
2019-05-25T07:25:53.676Z,12.8
2019-05-25T07:27:59.412Z,12.8
2019-05-25T07:29:52.819Z,12.9
2019-05-25T07:30:09.879Z,13
2019-05-25T07:31:52.867Z,13.1
2019-05-25T07:33:52.908Z,13.2
2019-05-25T07:35:52.786Z,13.2
2019-05-25T07:37:52.876Z,13.4
2019-05-25T07:39:52.770Z,13.6
2019-05-25T07:41:52.900Z,13.7
2019-05-25T07:43:52.789Z,13.6
2019-05-25T07:45:09.844Z,13.4
2019-05-25T07:45:52.887Z,13.4
2019-05-25T07:47:52.795Z,13.6
2019-05-25T07:49:52.850Z,13.8
2019-05-25T07:51:52.814Z,13.8
2019-05-25T07:53:52.754Z,14
2019-05-25T07:55:52.783Z,14.1
2019-05-25T07:57:52.853Z,14.3
2019-05-25T07:59:52.868Z,14.3
2019-05-25T08:00:09.837Z,14.3
2019-05-25T08:01:52.904Z,13.9
2019-05-25T08:03:52.849Z,13.9
2019-05-25T08:05:52.822Z,13.8
2019-05-25T08:07:52.781Z,13.8
2019-05-25T08:09:53.762Z,14.1
2019-05-25T08:11:52.890Z,14.2
2019-05-25T08:13:52.888Z,14.1
2019-05-25T08:15:10.729Z,13.9
2019-05-25T08:15:52.781Z,13.9
2019-05-25T08:17:52.852Z,13.9
2019-05-25T08:19:52.736Z,14.1
2019-05-25T08:21:52.880Z,14.3
2019-05-25T08:23:52.869Z,14.3
2019-05-25T08:25:52.860Z,14.3
2019-05-25T08:27:52.727Z,14.1
2019-05-25T08:29:52.877Z,14.1
2019-05-25T08:30:09.844Z,14.1
2019-05-25T08:31:52.899Z,14
2019-05-25T08:33:52.814Z,13.9
2019-05-25T08:35:52.869Z,13.8
2019-05-25T08:37:52.882Z,13.6
2019-05-25T08:39:52.894Z,13.5
2019-05-25T08:41:52.868Z,13.6
2019-05-25T08:43:52.942Z,13.8
2019-05-25T08:45:09.905Z,13.8
2019-05-25T08:45:52.866Z,13.9
2019-05-25T08:47:56.198Z,13.9
2019-05-25T08:49:52.871Z,13.9
2019-05-25T08:51:54.900Z,14
2019-05-25T08:53:52.869Z,14.1
2019-05-25T08:55:52.752Z,14.1
2019-05-25T08:57:52.865Z,14.1
2019-05-25T08:59:52.774Z,14.3
2019-05-25T09:00:09.820Z,14.3
2019-05-25T09:01:52.787Z,14.3
2019-05-25T09:03:52.879Z,14.2
2019-05-25T09:05:52.817Z,14.3
2019-05-25T09:07:52.878Z,14.1
2019-05-25T09:09:52.875Z,14
2019-05-25T09:11:52.789Z,14.3
2019-05-25T09:13:52.869Z,14.4
2019-05-25T09:15:09.881Z,14.4
2019-05-25T09:15:52.863Z,14.5
2019-05-25T09:17:52.775Z,14.5
2019-05-25T09:19:52.863Z,14.6
2019-05-25T09:22:01.785Z,14.8
2019-05-25T09:23:52.908Z,14.6
2019-05-25T09:25:52.936Z,14.7
2019-05-25T09:27:52.864Z,14.5
2019-05-25T09:29:52.932Z,14.6
2019-05-25T09:30:09.894Z,14.6
2019-05-25T09:31:52.880Z,14.6
2019-05-25T09:33:52.926Z,14.6
2019-05-25T09:35:52.733Z,14.8
2019-05-25T09:37:52.868Z,15.1
2019-05-25T09:39:52.766Z,14.9
2019-05-25T09:41:52.829Z,14.8
2019-05-25T09:43:52.787Z,15.1
2019-05-25T09:45:09.837Z,15.4
2019-05-25T09:45:52.878Z,15.4
2019-05-25T09:47:52.798Z,15.2
2019-05-25T09:49:52.836Z,15.4
2019-05-25T09:51:52.793Z,15.3
2019-05-25T09:53:52.861Z,15.3
2019-05-25T09:55:52.783Z,15.4
2019-05-25T09:57:52.881Z,15.4
2019-05-25T09:59:53.662Z,15.6
2019-05-25T10:00:09.877Z,15.6
2019-05-25T10:01:52.879Z,15.7
2019-05-25T10:03:52.875Z,15.9
2019-05-25T10:05:52.896Z,15.9
2019-05-25T10:07:52.909Z,16
2019-05-25T10:09:52.863Z,16
2019-05-25T10:11:52.852Z,15.9
2019-05-25T10:13:52.867Z,16
2019-05-25T10:15:09.908Z,16
2019-05-25T10:15:53.860Z,16.1
2019-05-25T10:17:52.727Z,16.2
2019-05-25T10:19:52.969Z,16.2
2019-05-25T10:21:52.820Z,16.1
2019-05-25T10:23:52.872Z,16.3
2019-05-25T10:25:52.885Z,16.1
2019-05-25T10:27:52.853Z,16.3
2019-05-25T10:29:52.858Z,16.6
2019-05-25T10:30:09.865Z,16.6
2019-05-25T10:31:52.865Z,16.5
2019-05-25T10:33:52.868Z,16.8
2019-05-25T10:35:52.867Z,17
2019-05-25T10:37:52.876Z,16.9
2019-05-25T10:39:52.890Z,17.6
2019-05-25T10:41:52.874Z,17.4
2019-05-25T10:43:52.853Z,17.3
2019-05-25T10:45:09.797Z,17.4
2019-05-25T10:45:52.871Z,17.5
2019-05-25T10:47:53.628Z,17.3
2019-05-25T10:49:52.872Z,17.3
2019-05-25T10:51:52.874Z,17.8
2019-05-25T10:53:52.934Z,17.4
2019-05-25T10:55:52.775Z,17.4
2019-05-25T10:57:52.865Z,17.8
2019-05-25T10:59:53.490Z,17.6
2019-05-25T11:00:09.859Z,17.6
2019-05-25T11:01:52.868Z,17.8
2019-05-25T11:03:52.958Z,17.9
2019-05-25T11:05:52.818Z,18.1
2019-05-25T11:07:52.851Z,17.7
2019-05-25T11:09:52.914Z,18
2019-05-25T11:11:52.878Z,17.4
2019-05-25T11:13:52.834Z,17.3
2019-05-25T11:15:09.892Z,17.4
2019-05-25T11:15:52.858Z,17.6
2019-05-25T11:17:52.886Z,17.6
2019-05-25T11:19:52.864Z,17.3
2019-05-25T11:21:52.902Z,17.5
2019-05-25T11:23:52.855Z,17.7
2019-05-25T11:25:52.867Z,17.9
2019-05-25T11:27:52.783Z,17.8
2019-05-25T11:30:06.021Z,17.7
2019-05-25T11:30:10.265Z,17.6
2019-05-25T11:31:56.295Z,17.8
2019-05-25T11:33:52.867Z,17.9
2019-05-25T11:35:53.747Z,17.8
2019-05-25T11:37:52.818Z,17.7
2019-05-25T11:39:52.853Z,17.4
2019-05-25T11:41:52.816Z,17.6
2019-05-25T11:43:52.956Z,17.5
2019-05-25T11:45:09.916Z,17.6
2019-05-25T11:45:52.829Z,17.4
2019-05-25T11:47:52.965Z,17.7
2019-05-25T11:49:52.742Z,17.6
2019-05-25T11:51:52.909Z,17.4
2019-05-25T11:53:52.825Z,17.5
2019-05-25T11:55:52.967Z,17.6
2019-05-25T11:57:52.817Z,17.6
2019-05-25T11:59:52.940Z,17.8
2019-05-25T12:00:23.551Z,17.8
2019-05-25T12:01:52.834Z,17.6
2019-05-25T12:03:52.867Z,17.6
2019-05-25T12:05:52.816Z,17.6
2019-05-25T12:07:52.892Z,17.4
2019-05-25T12:09:52.848Z,17.4
2019-05-25T12:11:52.820Z,17.3
2019-05-25T12:13:52.929Z,17.4
2019-05-25T12:15:09.898Z,17.5
2019-05-25T12:15:52.880Z,17.6
2019-05-25T12:17:52.870Z,17.6
2019-05-25T12:19:52.819Z,17.6
2019-05-25T12:21:52.821Z,17.7
2019-05-25T12:23:52.873Z,17.6
2019-05-25T12:25:52.818Z,17.6
2019-05-25T12:27:52.870Z,17.6
2019-05-25T12:29:52.876Z,17.7
2019-05-25T12:30:09.792Z,17.7
2019-05-25T12:32:03.297Z,17.4
2019-05-25T12:33:52.796Z,17.8
2019-05-25T12:35:52.745Z,17.9
2019-05-25T12:37:52.931Z,18
2019-05-25T12:39:52.728Z,18
2019-05-25T12:41:52.816Z,17.9
2019-05-25T12:43:54.554Z,17.7
2019-05-25T12:45:09.877Z,17.3
2019-05-25T12:45:52.897Z,17.2
2019-05-25T12:47:52.860Z,16.9
2019-05-25T12:49:52.781Z,17.6
2019-05-25T12:51:52.823Z,17.8
2019-05-25T12:53:52.850Z,18
2019-05-25T12:55:52.838Z,18
2019-05-25T12:57:52.840Z,17.8
2019-05-25T12:59:52.864Z,17.6
2019-05-25T13:00:15.792Z,17.6
2019-05-25T13:01:52.820Z,17.6
2019-05-25T13:03:52.825Z,17.4
2019-05-25T13:05:52.845Z,17.6
2019-05-25T13:07:52.862Z,17.9
2019-05-25T13:09:52.878Z,18
2019-05-25T13:11:52.945Z,17.6
2019-05-25T13:13:52.824Z,17.6
2019-05-25T13:15:09.765Z,17.8
2019-05-25T13:15:52.765Z,17.9
2019-05-25T13:17:52.768Z,17.6
2019-05-25T13:19:52.864Z,17.4
2019-05-25T13:21:52.885Z,18
2019-05-25T13:23:52.994Z,18.4
2019-05-25T13:25:52.871Z,18.2
2019-05-25T13:27:52.747Z,17.8
2019-05-25T13:29:52.828Z,17.6
2019-05-25T13:30:09.828Z,17.6
2019-05-25T13:31:52.861Z,17.6
2019-05-25T13:33:52.816Z,17.8
2019-05-25T13:35:52.971Z,18.1
2019-05-25T13:37:52.890Z,18.1
2019-05-25T13:39:52.869Z,17.9
2019-05-25T13:41:52.859Z,17.7
2019-05-25T13:43:52.873Z,17.6
2019-05-25T13:45:09.894Z,17.4
2019-05-25T13:45:52.873Z,17.5
2019-05-25T13:47:52.829Z,17.8
2019-05-25T13:49:52.811Z,17.6
2019-05-25T13:51:52.813Z,17.8
2019-05-25T13:53:52.870Z,18
2019-05-25T13:55:52.810Z,17.9
2019-05-25T13:57:52.942Z,18.1
2019-05-25T13:59:52.839Z,18.3
2019-05-25T14:00:09.827Z,18.3
2019-05-25T14:01:52.871Z,18.3
2019-05-25T14:03:55.713Z,17.8
2019-05-25T14:05:52.867Z,18
2019-05-25T14:07:52.881Z,18.1
2019-05-25T14:09:52.781Z,18.1
2019-05-25T14:11:52.868Z,18.1
2019-05-25T14:13:52.951Z,18.3
2019-05-25T14:15:09.811Z,18.2
2019-05-25T14:16:06.004Z,18.1
2019-05-25T14:17:52.909Z,18.1
2019-05-25T14:19:52.953Z,18.1
2019-05-25T14:21:52.824Z,18.2
2019-05-25T14:23:52.851Z,18.1
2019-05-25T14:25:52.882Z,18.3
2019-05-25T14:27:52.832Z,18.3
2019-05-25T14:29:52.875Z,18.2
2019-05-25T14:30:09.883Z,18.3
2019-05-25T14:31:53.730Z,17.9
2019-05-25T14:33:52.868Z,18.3
2019-05-25T14:35:52.816Z,18.4
2019-05-25T14:37:52.897Z,18.3
2019-05-25T14:39:52.736Z,18.1
2019-05-25T14:41:52.812Z,18.3
2019-05-25T14:43:52.802Z,18.2
2019-05-25T14:45:09.851Z,18
2019-05-25T14:45:53.279Z,18
2019-05-25T14:47:52.784Z,18.3
2019-05-25T14:49:52.859Z,18.3
2019-05-25T14:51:52.818Z,18.3
2019-05-25T14:53:52.832Z,18.3
2019-05-25T14:55:52.859Z,18.5
2019-05-25T14:57:52.859Z,17.9
2019-05-25T14:59:52.993Z,17.9
2019-05-25T15:00:09.876Z,17.9
2019-05-25T15:02:01.762Z,18.2
2019-05-25T15:03:52.817Z,18.5
2019-05-25T15:05:52.878Z,18.1
2019-05-25T15:07:52.817Z,17.8
2019-05-25T15:09:52.844Z,17.7
2019-05-25T15:11:54.068Z,17.9
2019-05-25T15:13:52.872Z,18
2019-05-25T15:15:09.893Z,18.2
2019-05-25T15:15:53.740Z,18.1
2019-05-25T15:17:52.830Z,18.1
2019-05-25T15:19:52.866Z,18.2
2019-05-25T15:21:52.971Z,17.9
2019-05-25T15:23:52.958Z,17.8
2019-05-25T15:25:52.855Z,17.9
2019-05-25T15:27:52.856Z,18
2019-05-25T15:29:52.879Z,18.1
2019-05-25T15:30:09.859Z,18.1
2019-05-25T15:31:52.874Z,17.8
2019-05-25T15:33:52.871Z,17.4
2019-05-25T15:35:52.824Z,17.4
2019-05-25T15:37:52.887Z,17.4
2019-05-25T15:39:52.840Z,17.5
2019-05-25T15:41:52.894Z,17.6
2019-05-25T15:43:52.823Z,17.7
2019-05-25T15:45:09.870Z,17.6
2019-05-25T15:45:52.877Z,17.4
2019-05-25T15:47:52.898Z,17.4
2019-05-25T15:49:52.874Z,17.6
2019-05-25T15:51:52.922Z,17.4
2019-05-25T15:53:52.929Z,17.8
2019-05-25T15:55:52.868Z,17.8
2019-05-25T15:57:52.922Z,17.7
2019-05-25T15:59:52.942Z,17.5
2019-05-25T16:00:09.861Z,17.5
2019-05-25T16:01:52.951Z,17.5
2019-05-25T16:03:52.874Z,17.7
2019-05-25T16:05:52.815Z,17.9
2019-05-25T16:07:52.872Z,17.9
2019-05-25T16:09:52.878Z,17.8
2019-05-25T16:11:52.860Z,17.8
2019-05-25T16:13:52.853Z,17.7
2019-05-25T16:15:09.895Z,17.6
2019-05-25T16:15:52.858Z,17.6
2019-05-25T16:17:52.859Z,17.6
2019-05-25T16:19:52.861Z,17.8
2019-05-25T16:21:52.865Z,17.9
2019-05-25T16:23:52.868Z,17.9
2019-05-25T16:25:52.867Z,17.9
2019-05-25T16:27:52.858Z,18
2019-05-25T16:29:52.827Z,17.8
2019-05-25T16:30:09.874Z,17.8
2019-05-25T16:31:52.874Z,17.7
2019-05-25T16:33:52.856Z,17.8
2019-05-25T16:35:52.853Z,17.8
2019-05-25T16:37:52.946Z,17.8
2019-05-25T16:39:53.032Z,17.8
2019-05-25T16:41:52.903Z,17.8
2019-05-25T16:43:52.913Z,17.6
2019-05-25T16:45:09.810Z,17.4
2019-05-25T16:45:52.851Z,17.5
2019-05-25T16:47:52.863Z,17.4
2019-05-25T16:49:52.861Z,17.3
2019-05-25T16:51:52.789Z,17.4
2019-05-25T16:53:52.819Z,17.5
2019-05-25T16:55:54.675Z,17.6
2019-05-25T16:57:52.833Z,17.5
2019-05-25T16:59:52.813Z,17.3
2019-05-25T17:00:09.775Z,17.3
2019-05-25T17:01:52.844Z,17.3
2019-05-25T17:03:52.869Z,17.4
2019-05-25T17:05:52.807Z,17.4
2019-05-25T17:07:52.865Z,17.6
2019-05-25T17:09:52.871Z,17.5
2019-05-25T17:11:52.816Z,17.4
2019-05-25T17:13:52.868Z,17.6
2019-05-25T17:15:09.881Z,17.6
2019-05-25T17:15:52.859Z,17.6
2019-05-25T17:17:52.825Z,17.8
2019-05-25T17:19:52.848Z,18
2019-05-25T17:21:52.749Z,17.9
2019-05-25T17:23:52.870Z,18.1
2019-05-25T17:25:52.823Z,18.1
2019-05-25T17:27:52.933Z,17.9
2019-05-25T17:29:52.843Z,17.7
2019-05-25T17:30:09.831Z,17.8
2019-05-25T17:31:52.957Z,17.9
2019-05-25T17:33:52.906Z,17.9
2019-05-25T17:35:52.864Z,18
2019-05-25T17:37:52.882Z,18.1
2019-05-25T17:39:52.860Z,18.1
2019-05-25T17:41:52.940Z,18.3
2019-05-25T17:43:52.858Z,18.6
2019-05-25T17:45:09.894Z,18.6
2019-05-25T17:45:52.937Z,18.7
2019-05-25T17:47:52.862Z,19.1
2019-05-25T17:49:52.925Z,18.8
2019-05-25T17:51:52.868Z,18.8
2019-05-25T17:53:52.890Z,19.3
2019-05-25T17:55:52.854Z,19.3
2019-05-25T17:57:52.837Z,19.1
2019-05-25T17:59:52.867Z,19.3
2019-05-25T18:00:10.746Z,19.1
2019-05-25T18:01:52.815Z,18.6
2019-05-25T18:04:05.362Z,18.9
2019-05-25T18:05:52.898Z,18.8
2019-05-25T18:07:52.875Z,19.4
2019-05-25T18:09:52.822Z,19.1
2019-05-25T18:11:52.851Z,19.2
2019-05-25T18:13:52.813Z,19
2019-05-25T18:15:09.890Z,19.3
2019-05-25T18:15:52.847Z,19.3
2019-05-25T18:17:52.841Z,19.5
2019-05-25T18:19:52.868Z,19.5
2019-05-25T18:21:52.820Z,19.4
2019-05-25T18:23:52.852Z,19.1
2019-05-25T18:25:52.821Z,18.9
2019-05-25T18:27:52.883Z,18.9
2019-05-25T18:29:52.853Z,18.8
2019-05-25T18:30:09.879Z,18.8
2019-05-25T18:31:52.961Z,18.7
2019-05-25T18:33:52.868Z,18.4
2019-05-25T18:35:52.968Z,18.2
2019-05-25T18:37:52.869Z,18.1
2019-05-25T18:39:52.955Z,17.9
2019-05-25T18:41:52.923Z,17.8
2019-05-25T18:43:52.865Z,17.8
2019-05-25T18:45:09.890Z,17.7
2019-05-25T18:45:52.862Z,17.6
2019-05-25T18:47:52.853Z,17.6
2019-05-25T18:49:52.839Z,17.6
2019-05-25T18:51:52.873Z,17.7
2019-05-25T18:53:52.861Z,17.6
2019-05-25T18:55:52.855Z,17.4
2019-05-25T18:57:52.873Z,17.4
2019-05-25T18:59:52.955Z,17.3
2019-05-25T19:00:09.874Z,17.3
2019-05-25T19:01:52.858Z,17.3
2019-05-25T19:03:52.950Z,17.3
2019-05-25T19:05:52.858Z,17.3
2019-05-25T19:07:52.860Z,17.2
2019-05-25T19:09:52.990Z,17.1
2019-05-25T19:11:52.855Z,17
2019-05-25T19:13:53.051Z,16.9
2019-05-25T19:15:09.898Z,16.9
2019-05-25T19:15:52.870Z,16.9
2019-05-25T19:17:52.923Z,16.9
2019-05-25T19:19:52.852Z,16.8
2019-05-25T19:21:52.956Z,16.8
2019-05-25T19:23:52.963Z,16.7
2019-05-25T19:25:52.922Z,16.7
2019-05-25T19:27:52.893Z,16.6
2019-05-25T19:29:52.947Z,16.5
2019-05-25T19:30:09.878Z,16.5
2019-05-25T19:31:52.936Z,16.4
2019-05-25T19:33:52.871Z,16.4
2019-05-25T19:35:54.308Z,16.4
2019-05-25T19:37:52.828Z,16.4
2019-05-25T19:39:52.864Z,16.4
2019-05-25T19:41:52.883Z,16.3
2019-05-25T19:43:52.862Z,16.3
2019-05-25T19:45:09.940Z,16.2
2019-05-25T19:45:52.862Z,16.2
2019-05-25T19:47:52.863Z,16.1
2019-05-25T19:49:52.849Z,16.1
2019-05-25T19:51:52.913Z,16.1
2019-05-25T19:53:52.828Z,16
2019-05-25T19:55:52.989Z,15.9
2019-05-25T19:57:52.864Z,15.9
2019-05-25T19:59:52.977Z,15.9
2019-05-25T20:00:09.858Z,15.9
2019-05-25T20:01:52.943Z,15.8
2019-05-25T20:03:56.492Z,15.8
2019-05-25T20:05:52.942Z,15.8
2019-05-25T20:08:03.026Z,15.8
2019-05-25T20:09:52.873Z,15.7
2019-05-25T20:11:52.925Z,15.7
2019-05-25T20:13:52.906Z,15.7
2019-05-25T20:15:09.780Z,15.7
2019-05-25T20:15:52.937Z,15.6
2019-05-25T20:17:52.950Z,15.6
2019-05-25T20:19:52.961Z,15.6
2019-05-25T20:21:52.877Z,15.6
2019-05-25T20:23:52.939Z,15.6
2019-05-25T20:25:52.959Z,15.5
2019-05-25T20:27:52.868Z,15.5
2019-05-25T20:29:52.912Z,15.4
2019-05-25T20:30:09.893Z,15.4
2019-05-25T20:31:52.935Z,15.4
2019-05-25T20:33:52.869Z,15.4
2019-05-25T20:35:52.872Z,15.4
2019-05-25T20:37:52.955Z,15.3
2019-05-25T20:39:52.961Z,15.3
2019-05-25T20:41:52.975Z,15.3
2019-05-25T20:43:52.895Z,15.2
2019-05-25T20:45:09.866Z,15.2
2019-05-25T20:45:52.851Z,15.2
2019-05-25T20:47:52.938Z,15.1
2019-05-25T20:49:52.965Z,15.1
2019-05-25T20:51:52.875Z,15.1
2019-05-25T20:53:52.866Z,15.1
2019-05-25T20:55:52.953Z,15.1
2019-05-25T20:57:52.882Z,15
2019-05-25T20:59:52.812Z,15.1
2019-05-25T21:00:09.875Z,15.1
2019-05-25T21:01:52.842Z,15
2019-05-25T21:03:52.961Z,14.8
2019-05-25T21:05:52.928Z,14.7
2019-05-25T21:07:52.865Z,14.7
2019-05-25T21:09:52.872Z,14.8
2019-05-25T21:11:55.735Z,14.7
2019-05-25T21:13:52.857Z,14.6
2019-05-25T21:15:09.848Z,14.6
2019-05-25T21:15:52.880Z,14.6
2019-05-25T21:17:52.861Z,14.7
2019-05-25T21:19:52.943Z,14.7
2019-05-25T21:21:52.944Z,14.6
2019-05-25T21:23:53.713Z,14.6
2019-05-25T21:25:52.865Z,14.6
2019-05-25T21:27:52.874Z,14.5
2019-05-25T21:29:52.963Z,14.4
2019-05-25T21:30:09.903Z,14.4
2019-05-25T21:31:52.896Z,14.4
2019-05-25T21:33:52.896Z,14.4
2019-05-25T21:36:06.680Z,14.3
2019-05-25T21:37:52.867Z,14.2
2019-05-25T21:39:52.870Z,14.1
2019-05-25T21:41:52.836Z,14.1
2019-05-25T21:43:52.948Z,14.2
2019-05-25T21:45:09.895Z,14.3
2019-05-25T21:45:52.866Z,14.2
2019-05-25T21:47:55.989Z,14.2
2019-05-25T21:49:52.876Z,14.2
2019-05-25T21:51:53.038Z,14.2
2019-05-25T21:53:52.951Z,14.2
2019-05-25T21:55:52.946Z,14.2
2019-05-25T21:57:52.872Z,14.2
2019-05-25T21:59:52.818Z,14.2
2019-05-25T22:00:09.974Z,14.2
2019-05-25T22:01:53.755Z,14.2
2019-05-25T22:03:52.955Z,14.2
2019-05-25T22:05:53.754Z,14.1
2019-05-25T22:07:52.955Z,14.1
2019-05-25T22:09:52.973Z,14.1
2019-05-25T22:11:52.840Z,14
2019-05-25T22:13:52.879Z,13.9
2019-05-25T22:15:10.509Z,13.9
2019-05-25T22:15:53.934Z,13.9
2019-05-25T22:18:00.546Z,13.9
2019-05-25T22:19:52.972Z,13.9
2019-05-25T22:21:52.811Z,13.8
2019-05-25T22:23:52.871Z,13.8
2019-05-25T22:25:52.867Z,13.8
2019-05-25T22:27:52.851Z,13.7
2019-05-25T22:29:52.942Z,13.6
2019-05-25T22:30:09.877Z,13.6
2019-05-25T22:31:52.876Z,13.6
2019-05-25T22:33:52.891Z,13.6
2019-05-25T22:35:52.864Z,13.6
2019-05-25T22:37:52.950Z,13.6
2019-05-25T22:39:52.871Z,13.6
2019-05-25T22:41:52.950Z,13.5
2019-05-25T22:43:52.851Z,13.5
2019-05-25T22:45:09.853Z,13.5
2019-05-25T22:45:52.941Z,13.5
2019-05-25T22:47:52.862Z,13.4
2019-05-25T22:49:52.866Z,13.4
2019-05-25T22:51:52.785Z,13.4
2019-05-25T22:53:52.868Z,13.4
2019-05-25T22:55:52.872Z,13.4
2019-05-25T22:57:52.875Z,13.3
2019-05-25T22:59:52.891Z,13.4
2019-05-25T23:00:10.029Z,13.3
2019-05-25T23:01:52.891Z,13.4
2019-05-25T23:03:52.861Z,13.4
2019-05-25T23:05:52.872Z,13.4
2019-05-25T23:07:52.872Z,13.3
2019-05-25T23:09:52.851Z,13.3
2019-05-25T23:11:52.983Z,13.3
2019-05-25T23:13:52.947Z,13.3
2019-05-25T23:15:09.953Z,13.3
2019-05-25T23:15:52.982Z,13.3
2019-05-25T23:17:52.852Z,13.3
2019-05-25T23:19:52.856Z,13.3
2019-05-25T23:21:52.874Z,13.3
2019-05-25T23:23:52.793Z,13.3
2019-05-25T23:25:52.854Z,13.3
2019-05-25T23:27:53.833Z,13.3
2019-05-25T23:29:52.870Z,13.2
2019-05-25T23:30:09.855Z,13.2
2019-05-25T23:31:52.895Z,13.2
2019-05-25T23:33:52.854Z,13.1
2019-05-25T23:35:52.871Z,13.2
2019-05-25T23:37:52.873Z,13.1
2019-05-25T23:39:52.904Z,13.1